KTVL/TVL METAR and TAF weather

Enter ICAO airport designator
Station Type Date Time Source
KTVL METAR 2021/04/17 02:53 UTC NOAA

KTVL 170253Z AUTO 02005KT 10SM BKN085 08/M07 A3009 RMK AO2 SLP175 T00781067 53008


Station Type Date Time Source
KTVL Decoded METAR 2021/04/17 02:53 UTC NOAA

SOUTH LAKE TAHOE AIRPORT, CA, United States (KTVL) 38-53N 119-59W 1925M
Apr 16, 2021 - 10:53 PM EDT / 2021.04.17 0253 UTC
Wind: from the NNE (020 degrees) at 6 MPH (5 KT):0
Visibility: 10 mile(s):0
Sky conditions: mostly cloudy
Temperature: 46.0 F (7.8 C)
Dew Point: 19.9 F (-6.7 C)
Relative Humidity: 35%
Pressure (altimeter): 30.09 in. Hg (1018 hPa)
Pressure tendency: 0.02 inches (0.8 hPa) higher than three hours ago
ob: KTVL 170253Z AUTO 02005KT 10SM BKN085 08/M07 A3009 RMK AO2 SLP175 T00781067 53008
cycle: 3

Station Type Date Time Source
KTVL TAF 2021/04/16 18:42 UTC NOAA

TAF KTVL 161741Z 1618/1718 02008KT P6SM SCT060
FM170200 VRB03KT P6SM SKC

Example: see airport list